sensor_id;sensor_type;location;lat;lon;timestamp;P1;durP1;ratioP1;P2;durP2;ratioP2
25667;SDS011;18003;-33.830;151.202;2023-09-08T00:02:05;3.20;;;3.00;;
25667;SDS011;18003;-33.830;151.202;2023-09-08T00:04:35;3.00;;;2.80;;
25667;SDS011;18003;-33.830;151.202;2023-09-08T00:07:06;3.98;;;3.00;;
25667;SDS011;18003;-33.830;151.202;2023-09-08T00:09:36;3.87;;;3.30;;
25667;SDS011;18003;-33.830;151.202;2023-09-08T00:12:06;3.27;;;3.02;;
25667;SDS011;18003;-33.830;151.202;2023-09-08T00:14:36;3.47;;;3.17;;
25667;SDS011;18003;-33.830;151.202;2023-09-08T00:17:06;4.42;;;3.65;;
25667;SDS011;18003;-33.830;151.202;2023-09-08T00:19:36;3.30;;;3.00;;
25667;SDS011;18003;-33.830;151.202;2023-09-08T00:22:08;3.90;;;3.42;;
25667;SDS011;18003;-33.830;151.202;2023-09-08T00:24:38;3.65;;;3.35;;
25667;SDS011;18003;-33.830;151.202;2023-09-08T00:27:08;3.70;;;3.40;;
25667;SDS011;18003;-33.830;151.202;2023-09-08T00:29:37;3.65;;;3.40;;
25667;SDS011;18003;-33.830;151.202;2023-09-08T00:32:08;4.25;;;3.50;;
25667;SDS011;18003;-33.830;151.202;2023-09-08T00:34:38;3.60;;;3.30;;
25667;SDS011;18003;-33.830;151.202;2023-09-08T00:37:09;3.67;;;3.40;;
25667;SDS011;18003;-33.830;151.202;2023-09-08T00:39:39;3.00;;;2.80;;
25667;SDS011;18003;-33.830;151.202;2023-09-08T00:42:09;3.40;;;3.10;;
25667;SDS011;18003;-33.830;151.202;2023-09-08T00:44:39;4.40;;;3.10;;
25667;SDS011;18003;-33.830;151.202;2023-09-08T00:47:09;3.25;;;3.05;;
25667;SDS011;18003;-33.830;151.202;2023-09-08T00:49:39;3.20;;;3.00;;
25667;SDS011;18003;-33.830;151.202;2023-09-08T00:52:09;3.27;;;2.70;;
25667;SDS011;18003;-33.830;151.202;2023-09-08T00:54:39;3.67;;;2.90;;
25667;SDS011;18003;-33.830;151.202;2023-09-08T00:57:09;3.67;;;2.80;;
25667;SDS011;18003;-33.830;151.202;2023-09-08T00:59:39;2.98;;;2.77;;
25667;SDS011;18003;-33.830;151.202;2023-09-08T01:02:10;3.43;;;2.90;;
25667;SDS011;18003;-33.830;151.202;2023-09-08T01:04:40;3.47;;;3.00;;
25667;SDS011;18003;-33.830;151.202;2023-09-08T01:07:11;3.00;;;2.70;;
25667;SDS011;18003;-33.830;151.202;2023-09-08T01:09:42;2.95;;;2.80;;
25667;SDS011;18003;-33.830;151.202;2023-09-08T01:12:12;3.30;;;2.90;;
25667;SDS011;18003;-33.830;151.202;2023-09-08T01:14:43;3.62;;;2.50;;
25667;SDS011;18003;-33.830;151.202;2023-09-08T01:17:13;3.00;;;2.80;;
25667;SDS011;18003;-33.830;151.202;2023-09-08T01:19:43;2.92;;;2.70;;
25667;SDS011;18003;-33.830;151.202;2023-09-08T01:27:56;2.92;;;2.60;;
25667;SDS011;18003;-33.830;151.202;2023-09-08T01:30:29;2.50;;;2.30;;
25667;SDS011;18003;-33.830;151.202;2023-09-08T01:35:28;2.67;;;2.47;;
25667;SDS011;18003;-33.830;151.202;2023-09-08T01:37:58;2.58;;;2.37;;
25667;SDS011;18003;-33.830;151.202;2023-09-08T01:40:28;2.35;;;2.15;;
25667;SDS011;18003;-33.830;151.202;2023-09-08T01:42:59;2.50;;;2.40;;
25667;SDS011;18003;-33.830;151.202;2023-09-08T01:45:28;2.50;;;2.30;;
25667;SDS011;18003;-33.830;151.202;2023-09-08T01:47:58;3.37;;;2.35;;
25667;SDS011;18003;-33.830;151.202;2023-09-08T01:50:29;2.50;;;2.40;;
25667;SDS011;18003;-33.830;151.202;2023-09-08T01:52:59;2.50;;;2.30;;
25667;SDS011;18003;-33.830;151.202;2023-09-08T01:55:29;3.30;;;2.50;;
25667;SDS011;18003;-33.830;151.202;2023-09-08T01:57:59;5.60;;;2.65;;
25667;SDS011;18003;-33.830;151.202;2023-09-08T02:00:29;3.05;;;2.40;;
25667;SDS011;18003;-33.830;151.202;2023-09-08T02:02:59;2.77;;;2.12;;
25667;SDS011;18003;-33.830;151.202;2023-09-08T02:05:29;2.72;;;2.52;;
25667;SDS011;18003;-33.830;151.202;2023-09-08T02:08:00;3.52;;;2.37;;
25667;SDS011;18003;-33.830;151.202;2023-09-08T02:10:30;4.05;;;2.90;;
25667;SDS011;18003;-33.830;151.202;2023-09-08T02:13:00;3.77;;;2.70;;
25667;SDS011;18003;-33.830;151.202;2023-09-08T02:15:30;8.20;;;3.12;;
25667;SDS011;18003;-33.830;151.202;2023-09-08T02:18:01;6.30;;;3.47;;
25667;SDS011;18003;-33.830;151.202;2023-09-08T02:20:32;5.17;;;2.90;;
25667;SDS011;18003;-33.830;151.202;2023-09-08T02:23:05;3.25;;;2.70;;
25667;SDS011;18003;-33.830;151.202;2023-09-08T02:25:35;3.77;;;2.00;;
25667;SDS011;18003;-33.830;151.202;2023-09-08T02:28:06;3.72;;;2.58;;
25667;SDS011;18003;-33.830;151.202;2023-09-08T02:30:36;5.12;;;2.85;;
25667;SDS011;18003;-33.830;151.202;2023-09-08T02:33:06;5.22;;;2.70;;
25667;SDS011;18003;-33.830;151.202;2023-09-08T02:35:37;5.95;;;2.80;;
25667;SDS011;18003;-33.830;151.202;2023-09-08T02:38:07;3.67;;;2.33;;
25667;SDS011;18003;-33.830;151.202;2023-09-08T02:40:38;3.00;;;2.62;;
25667;SDS011;18003;-33.830;151.202;2023-09-08T02:43:08;4.08;;;2.80;;
25667;SDS011;18003;-33.830;151.202;2023-09-08T02:45:38;2.85;;;2.62;;
25667;SDS011;18003;-33.830;151.202;2023-09-08T02:48:08;4.65;;;2.72;;
25667;SDS011;18003;-33.830;151.202;2023-09-08T02:50:38;2.80;;;2.60;;
25667;SDS011;18003;-33.830;151.202;2023-09-08T02:53:08;3.98;;;2.50;;
25667;SDS011;18003;-33.830;151.202;2023-09-08T02:55:38;2.50;;;2.30;;
25667;SDS011;18003;-33.830;151.202;2023-09-08T02:58:08;5.37;;;2.40;;
25667;SDS011;18003;-33.830;151.202;2023-09-08T03:00:37;2.60;;;2.40;;
25667;SDS011;18003;-33.830;151.202;2023-09-08T03:03:07;2.65;;;2.47;;
25667;SDS011;18003;-33.830;151.202;2023-09-08T03:05:37;2.55;;;2.40;;
25667;SDS011;18003;-33.830;151.202;2023-09-08T03:08:07;2.40;;;2.30;;
25667;SDS011;18003;-33.830;151.202;2023-09-08T03:10:37;2.67;;;2.50;;
25667;SDS011;18003;-33.830;151.202;2023-09-08T03:13:08;2.50;;;2.30;;
25667;SDS011;18003;-33.830;151.202;2023-09-08T03:15:38;2.40;;;2.30;;
25667;SDS011;18003;-33.830;151.202;2023-09-08T03:18:08;2.70;;;2.52;;
25667;SDS011;18003;-33.830;151.202;2023-09-08T03:20:38;2.77;;;2.67;;
25667;SDS011;18003;-33.830;151.202;2023-09-08T03:23:08;3.27;;;2.95;;
25667;SDS011;18003;-33.830;151.202;2023-09-08T03:25:38;2.80;;;2.70;;
25667;SDS011;18003;-33.830;151.202;2023-09-08T03:28:09;2.60;;;2.50;;
25667;SDS011;18003;-33.830;151.202;2023-09-08T03:30:39;2.45;;;2.30;;
25667;SDS011;18003;-33.830;151.202;2023-09-08T03:33:09;2.08;;;1.98;;
25667;SDS011;18003;-33.830;151.202;2023-09-08T03:35:39;2.40;;;2.30;;
25667;SDS011;18003;-33.830;151.202;2023-09-08T03:38:09;2.72;;;2.60;;
25667;SDS011;18003;-33.830;151.202;2023-09-08T03:40:39;3.02;;;2.83;;
25667;SDS011;18003;-33.830;151.202;2023-09-08T03:43:09;2.62;;;2.52;;
25667;SDS011;18003;-33.830;151.202;2023-09-08T03:45:39;2.90;;;2.70;;
25667;SDS011;18003;-33.830;151.202;2023-09-08T03:48:10;3.20;;;3.00;;
25667;SDS011;18003;-33.830;151.202;2023-09-08T03:50:40;3.52;;;3.33;;
25667;SDS011;18003;-33.830;151.202;2023-09-08T03:53:11;6.40;;;3.47;;
25667;SDS011;18003;-33.830;151.202;2023-09-08T03:55:41;8.08;;;3.20;;
25667;SDS011;18003;-33.830;151.202;2023-09-08T03:58:11;4.20;;;3.00;;
25667;SDS011;18003;-33.830;151.202;2023-09-08T04:00:42;3.50;;;3.30;;
25667;SDS011;18003;-33.830;151.202;2023-09-08T04:03:12;2.90;;;2.70;;
25667;SDS011;18003;-33.830;151.202;2023-09-08T04:05:42;2.98;;;2.77;;
25667;SDS011;18003;-33.830;151.202;2023-09-08T04:08:12;2.98;;;2.70;;
25667;SDS011;18003;-33.830;151.202;2023-09-08T04:10:42;2.45;;;2.25;;
25667;SDS011;18003;-33.830;151.202;2023-09-08T04:13:12;2.80;;;2.70;;
25667;SDS011;18003;-33.830;151.202;2023-09-08T04:18:12;3.87;;;2.60;;
25667;SDS011;18003;-33.830;151.202;2023-09-08T04:20:43;4.78;;;2.65;;
25667;SDS011;18003;-33.830;151.202;2023-09-08T04:23:13;3.17;;;2.95;;
25667;SDS011;18003;-33.830;151.202;2023-09-08T04:25:43;3.08;;;2.87;;
25667;SDS011;18003;-33.830;151.202;2023-09-08T04:28:13;2.80;;;2.70;;
25667;SDS011;18003;-33.830;151.202;2023-09-08T04:30:43;3.45;;;3.20;;
25667;SDS011;18003;-33.830;151.202;2023-09-08T04:33:13;3.10;;;2.90;;
25667;SDS011;18003;-33.830;151.202;2023-09-08T04:35:43;2.80;;;2.70;;
25667;SDS011;18003;-33.830;151.202;2023-09-08T04:38:13;2.80;;;2.70;;
25667;SDS011;18003;-33.830;151.202;2023-09-08T04:40:45;3.00;;;2.80;;
25667;SDS011;18003;-33.830;151.202;2023-09-08T04:43:14;2.83;;;2.70;;
25667;SDS011;18003;-33.830;151.202;2023-09-08T04:45:44;2.60;;;2.40;;
25667;SDS011;18003;-33.830;151.202;2023-09-08T04:48:14;2.70;;;2.60;;
25667;SDS011;18003;-33.830;151.202;2023-09-08T04:50:45;2.80;;;2.60;;
25667;SDS011;18003;-33.830;151.202;2023-09-08T04:53:15;4.60;;;2.70;;
25667;SDS011;18003;-33.830;151.202;2023-09-08T04:55:45;2.50;;;2.40;;
25667;SDS011;18003;-33.830;151.202;2023-09-08T04:58:15;2.80;;;2.60;;
25667;SDS011;18003;-33.830;151.202;2023-09-08T05:00:45;2.67;;;2.50;;
25667;SDS011;18003;-33.830;151.202;2023-09-08T05:03:15;2.87;;;2.67;;
25667;SDS011;18003;-33.830;151.202;2023-09-08T05:05:45;2.75;;;2.60;;
25667;SDS011;18003;-33.830;151.202;2023-09-08T05:08:15;2.77;;;2.58;;
25667;SDS011;18003;-33.830;151.202;2023-09-08T05:10:46;2.62;;;2.52;;
25667;SDS011;18003;-33.830;151.202;2023-09-08T05:13:16;2.80;;;2.70;;
25667;SDS011;18003;-33.830;151.202;2023-09-08T05:15:46;2.80;;;2.60;;
25667;SDS011;18003;-33.830;151.202;2023-09-08T05:18:16;2.60;;;2.50;;
25667;SDS011;18003;-33.830;151.202;2023-09-08T05:20:47;2.50;;;2.30;;
25667;SDS011;18003;-33.830;151.202;2023-09-08T05:23:17;2.87;;;2.10;;
25667;SDS011;18003;-33.830;151.202;2023-09-08T05:25:47;2.10;;;2.00;;
25667;SDS011;18003;-33.830;151.202;2023-09-08T05:28:17;2.20;;;2.10;;
25667;SDS011;18003;-33.830;151.202;2023-09-08T05:30:47;2.30;;;2.20;;
25667;SDS011;18003;-33.830;151.202;2023-09-08T05:33:18;4.03;;;2.13;;
25667;SDS011;18003;-33.830;151.202;2023-09-08T05:35:48;2.30;;;2.20;;
25667;SDS011;18003;-33.830;151.202;2023-09-08T05:38:18;7.83;;;3.02;;
25667;SDS011;18003;-33.830;151.202;2023-09-08T05:40:48;24.12;;;5.50;;
25667;SDS011;18003;-33.830;151.202;2023-09-08T05:43:18;44.65;;;6.42;;
25667;SDS011;18003;-33.830;151.202;2023-09-08T05:45:49;30.12;;;5.10;;
25667;SDS011;18003;-33.830;151.202;2023-09-08T05:48:19;29.02;;;5.15;;
25667;SDS011;18003;-33.830;151.202;2023-09-08T05:50:49;23.25;;;5.05;;
25667;SDS011;18003;-33.830;151.202;2023-09-08T05:53:22;19.02;;;4.50;;
25667;SDS011;18003;-33.830;151.202;2023-09-08T05:55:52;9.63;;;3.83;;
25667;SDS011;18003;-33.830;151.202;2023-09-08T05:58:22;8.45;;;3.27;;
25667;SDS011;18003;-33.830;151.202;2023-09-08T06:00:53;6.87;;;3.00;;
25667;SDS011;18003;-33.830;151.202;2023-09-08T06:03:24;4.12;;;2.77;;
25667;SDS011;18003;-33.830;151.202;2023-09-08T06:05:54;3.52;;;2.40;;
25667;SDS011;18003;-33.830;151.202;2023-09-08T06:08:24;4.12;;;2.40;;
25667;SDS011;18003;-33.830;151.202;2023-09-08T06:10:57;2.52;;;2.30;;
25667;SDS011;18003;-33.830;151.202;2023-09-08T06:13:28;2.65;;;2.45;;
25667;SDS011;18003;-33.830;151.202;2023-09-08T06:16:01;2.52;;;2.37;;
25667;SDS011;18003;-33.830;151.202;2023-09-08T06:18:33;4.20;;;2.40;;
25667;SDS011;18003;-33.830;151.202;2023-09-08T06:21:04;2.40;;;2.30;;
25667;SDS011;18003;-33.830;151.202;2023-09-08T06:23:40;2.62;;;2.52;;
25667;SDS011;18003;-33.830;151.202;2023-09-08T06:26:12;3.62;;;3.08;;
25667;SDS011;18003;-33.830;151.202;2023-09-08T06:28:42;2.98;;;2.70;;
25667;SDS011;18003;-33.830;151.202;2023-09-08T06:31:12;2.37;;;2.20;;
25667;SDS011;18003;-33.830;151.202;2023-09-08T06:33:42;2.55;;;2.10;;
25667;SDS011;18003;-33.830;151.202;2023-09-08T06:36:12;2.30;;;2.15;;
25667;SDS011;18003;-33.830;151.202;2023-09-08T06:38:43;2.20;;;2.10;;
25667;SDS011;18003;-33.830;151.202;2023-09-08T06:41:12;2.40;;;2.20;;
25667;SDS011;18003;-33.830;151.202;2023-09-08T06:43:43;2.55;;;2.40;;
25667;SDS011;18003;-33.830;151.202;2023-09-08T06:46:13;2.40;;;2.30;;
25667;SDS011;18003;-33.830;151.202;2023-09-08T06:48:44;2.60;;;2.40;;
25667;SDS011;18003;-33.830;151.202;2023-09-08T06:51:14;2.85;;;2.75;;
25667;SDS011;18003;-33.830;151.202;2023-09-08T06:53:44;2.50;;;2.40;;
25667;SDS011;18003;-33.830;151.202;2023-09-08T06:56:15;2.40;;;2.30;;
25667;SDS011;18003;-33.830;151.202;2023-09-08T06:58:45;2.50;;;2.40;;
25667;SDS011;18003;-33.830;151.202;2023-09-08T07:01:15;2.80;;;2.70;;
25667;SDS011;18003;-33.830;151.202;2023-09-08T07:03:45;2.80;;;2.70;;
25667;SDS011;18003;-33.830;151.202;2023-09-08T07:06:15;2.98;;;2.77;;
25667;SDS011;18003;-33.830;151.202;2023-09-08T07:08:45;2.70;;;2.60;;
25667;SDS011;18003;-33.830;151.202;2023-09-08T07:11:16;2.60;;;2.40;;
25667;SDS011;18003;-33.830;151.202;2023-09-08T07:13:46;2.50;;;2.40;;
25667;SDS011;18003;-33.830;151.202;2023-09-08T07:16:16;2.77;;;2.62;;
25667;SDS011;18003;-33.830;151.202;2023-09-08T07:18:46;2.50;;;2.40;;
25667;SDS011;18003;-33.830;151.202;2023-09-08T07:21:16;2.20;;;2.10;;
25667;SDS011;18003;-33.830;151.202;2023-09-08T07:23:46;2.40;;;2.30;;
25667;SDS011;18003;-33.830;151.202;2023-09-08T07:26:16;2.70;;;2.60;;
25667;SDS011;18003;-33.830;151.202;2023-09-08T07:28:46;4.72;;;2.67;;
25667;SDS011;18003;-33.830;151.202;2023-09-08T07:31:16;3.85;;;2.80;;
25667;SDS011;18003;-33.830;151.202;2023-09-08T07:33:46;2.47;;;2.15;;
25667;SDS011;18003;-33.830;151.202;2023-09-08T07:36:16;3.02;;;1.92;;
25667;SDS011;18003;-33.830;151.202;2023-09-08T07:38:46;2.30;;;2.10;;
25667;SDS011;18003;-33.830;151.202;2023-09-08T07:41:17;7.25;;;2.55;;
25667;SDS011;18003;-33.830;151.202;2023-09-08T07:43:47;4.83;;;2.30;;
25667;SDS011;18003;-33.830;151.202;2023-09-08T07:46:19;5.10;;;2.20;;
25667;SDS011;18003;-33.830;151.202;2023-09-08T07:48:51;2.77;;;2.10;;
25667;SDS011;18003;-33.830;151.202;2023-09-08T07:51:21;3.58;;;2.05;;
25667;SDS011;18003;-33.830;151.202;2023-09-08T07:53:51;2.90;;;2.10;;
25667;SDS011;18003;-33.830;151.202;2023-09-08T07:56:24;2.00;;;1.90;;
25667;SDS011;18003;-33.830;151.202;2023-09-08T07:58:53;2.20;;;2.00;;
25667;SDS011;18003;-33.830;151.202;2023-09-08T08:01:23;2.62;;;1.87;;
25667;SDS011;18003;-33.830;151.202;2023-09-08T08:03:53;1.87;;;1.77;;
25667;SDS011;18003;-33.830;151.202;2023-09-08T08:06:23;1.70;;;1.70;;
25667;SDS011;18003;-33.830;151.202;2023-09-08T08:08:53;2.00;;;1.90;;
25667;SDS011;18003;-33.830;151.202;2023-09-08T08:11:23;2.00;;;1.90;;
25667;SDS011;18003;-33.830;151.202;2023-09-08T08:13:53;2.10;;;2.00;;
25667;SDS011;18003;-33.830;151.202;2023-09-08T08:16:24;1.98;;;1.87;;
25667;SDS011;18003;-33.830;151.202;2023-09-08T08:18:54;2.00;;;1.90;;
25667;SDS011;18003;-33.830;151.202;2023-09-08T08:21:23;2.10;;;2.00;;
25667;SDS011;18003;-33.830;151.202;2023-09-08T08:23:53;2.02;;;1.92;;
25667;SDS011;18003;-33.830;151.202;2023-09-08T08:26:23;2.10;;;2.00;;
25667;SDS011;18003;-33.830;151.202;2023-09-08T08:28:54;2.20;;;2.10;;
25667;SDS011;18003;-33.830;151.202;2023-09-08T08:31:24;2.22;;;2.12;;
25667;SDS011;18003;-33.830;151.202;2023-09-08T08:33:54;2.00;;;1.90;;
25667;SDS011;18003;-33.830;151.202;2023-09-08T08:36:24;2.12;;;2.00;;
25667;SDS011;18003;-33.830;151.202;2023-09-08T08:38:54;2.17;;;2.00;;
25667;SDS011;18003;-33.830;151.202;2023-09-08T08:41:24;2.00;;;1.90;;
25667;SDS011;18003;-33.830;151.202;2023-09-08T08:43:54;2.10;;;2.00;;
25667;SDS011;18003;-33.830;151.202;2023-09-08T08:48:54;1.80;;;1.80;;
25667;SDS011;18003;-33.830;151.202;2023-09-08T08:51:26;2.10;;;2.00;;
25667;SDS011;18003;-33.830;151.202;2023-09-08T08:53:56;1.80;;;1.70;;
25667;SDS011;18003;-33.830;151.202;2023-09-08T08:56:27;3.58;;;2.20;;
25667;SDS011;18003;-33.830;151.202;2023-09-08T08:58:57;2.20;;;2.10;;
25667;SDS011;18003;-33.830;151.202;2023-09-08T09:01:28;1.87;;;1.80;;
25667;SDS011;18003;-33.830;151.202;2023-09-08T09:03:58;1.80;;;1.70;;
25667;SDS011;18003;-33.830;151.202;2023-09-08T09:06:29;2.55;;;1.80;;
25667;SDS011;18003;-33.830;151.202;2023-09-08T09:08:59;2.00;;;1.90;;
25667;SDS011;18003;-33.830;151.202;2023-09-08T09:11:30;2.00;;;1.90;;
25667;SDS011;18003;-33.830;151.202;2023-09-08T09:14:00;1.90;;;1.80;;
25667;SDS011;18003;-33.830;151.202;2023-09-08T09:16:31;2.40;;;2.30;;
25667;SDS011;18003;-33.830;151.202;2023-09-08T09:21:44;2.10;;;2.00;;
25667;SDS011;18003;-33.830;151.202;2023-09-08T09:24:19;2.30;;;2.20;;
25667;SDS011;18003;-33.830;151.202;2023-09-08T09:27:10;2.80;;;2.20;;
25667;SDS011;18003;-33.830;151.202;2023-09-08T09:29:47;2.15;;;2.00;;
25667;SDS011;18003;-33.830;151.202;2023-09-08T09:32:22;1.92;;;1.82;;
25667;SDS011;18003;-33.830;151.202;2023-09-08T09:34:51;1.98;;;1.87;;
25667;SDS011;18003;-33.830;151.202;2023-09-08T09:37:23;2.10;;;2.00;;
25667;SDS011;18003;-33.830;151.202;2023-09-08T09:39:53;2.27;;;2.17;;
25667;SDS011;18003;-33.830;151.202;2023-09-08T09:42:23;2.02;;;1.92;;
25667;SDS011;18003;-33.830;151.202;2023-09-08T09:44:54;2.30;;;2.20;;
25667;SDS011;18003;-33.830;151.202;2023-09-08T09:47:24;2.30;;;2.20;;
25667;SDS011;18003;-33.830;151.202;2023-09-08T09:49:54;2.45;;;2.35;;
25667;SDS011;18003;-33.830;151.202;2023-09-08T09:52:25;2.45;;;2.30;;
25667;SDS011;18003;-33.830;151.202;2023-09-08T09:54:56;2.30;;;2.20;;
25667;SDS011;18003;-33.830;151.202;2023-09-08T09:57:27;2.52;;;2.33;;
25667;SDS011;18003;-33.830;151.202;2023-09-08T10:02:28;2.47;;;2.27;;
25667;SDS011;18003;-33.830;151.202;2023-09-08T10:04:59;2.80;;;2.60;;
25667;SDS011;18003;-33.830;151.202;2023-09-08T10:07:31;2.70;;;2.50;;
25667;SDS011;18003;-33.830;151.202;2023-09-08T10:10:01;2.70;;;2.50;;
25667;SDS011;18003;-33.830;151.202;2023-09-08T10:12:32;2.22;;;2.12;;
25667;SDS011;18003;-33.830;151.202;2023-09-08T10:15:04;2.30;;;2.20;;
25667;SDS011;18003;-33.830;151.202;2023-09-08T10:17:36;2.70;;;2.50;;
25667;SDS011;18003;-33.830;151.202;2023-09-08T10:20:08;2.50;;;2.40;;
25667;SDS011;18003;-33.830;151.202;2023-09-08T10:22:38;2.57;;;2.47;;
25667;SDS011;18003;-33.830;151.202;2023-09-08T10:25:11;2.42;;;2.30;;
25667;SDS011;18003;-33.830;151.202;2023-09-08T10:27:42;2.08;;;1.98;;
25667;SDS011;18003;-33.830;151.202;2023-09-08T10:30:12;1.70;;;1.60;;
25667;SDS011;18003;-33.830;151.202;2023-09-08T10:32:47;2.25;;;1.80;;
25667;SDS011;18003;-33.830;151.202;2023-09-08T10:35:17;2.00;;;1.90;;
25667;SDS011;18003;-33.830;151.202;2023-09-08T10:37:56;2.25;;;2.02;;
25667;SDS011;18003;-33.830;151.202;2023-09-08T10:40:23;2.00;;;1.90;;
25667;SDS011;18003;-33.830;151.202;2023-09-08T10:43:07;2.20;;;2.00;;
25667;SDS011;18003;-33.830;151.202;2023-09-08T10:45:37;2.33;;;2.00;;
25667;SDS011;18003;-33.830;151.202;2023-09-08T10:48:11;2.20;;;2.10;;
25667;SDS011;18003;-33.830;151.202;2023-09-08T10:50:42;2.10;;;1.95;;
25667;SDS011;18003;-33.830;151.202;2023-09-08T10:53:13;2.08;;;1.77;;
25667;SDS011;18003;-33.830;151.202;2023-09-08T10:55:44;1.90;;;1.80;;
25667;SDS011;18003;-33.830;151.202;2023-09-08T10:58:18;2.20;;;2.00;;
25667;SDS011;18003;-33.830;151.202;2023-09-08T11:00:53;2.02;;;1.90;;
25667;SDS011;18003;-33.830;151.202;2023-09-08T11:03:43;2.02;;;1.80;;
25667;SDS011;18003;-33.830;151.202;2023-09-08T11:06:12;3.27;;;2.12;;
25667;SDS011;18003;-33.830;151.202;2023-09-08T11:08:44;1.85;;;1.75;;
25667;SDS011;18003;-33.830;151.202;2023-09-08T11:11:15;2.07;;;1.90;;
25667;SDS011;18003;-33.830;151.202;2023-09-08T11:13:45;2.42;;;2.00;;
25667;SDS011;18003;-33.830;151.202;2023-09-08T11:16:16;2.30;;;2.15;;
25667;SDS011;18003;-33.830;151.202;2023-09-08T11:18:50;2.20;;;2.10;;
25667;SDS011;18003;-33.830;151.202;2023-09-08T11:21:19;3.00;;;2.30;;
25667;SDS011;18003;-33.830;151.202;2023-09-08T11:23:49;2.87;;;2.52;;
25667;SDS011;18003;-33.830;151.202;2023-09-08T11:26:19;2.58;;;2.37;;
25667;SDS011;18003;-33.830;151.202;2023-09-08T11:28:49;2.10;;;1.90;;
25667;SDS011;18003;-33.830;151.202;2023-09-08T11:31:20;2.20;;;2.02;;
25667;SDS011;18003;-33.830;151.202;2023-09-08T11:33:54;2.80;;;2.58;;
25667;SDS011;18003;-33.830;151.202;2023-09-08T11:36:22;2.08;;;1.98;;
25667;SDS011;18003;-33.830;151.202;2023-09-08T11:38:52;3.77;;;2.45;;
25667;SDS011;18003;-33.830;151.202;2023-09-08T11:41:25;2.50;;;2.37;;
25667;SDS011;18003;-33.830;151.202;2023-09-08T11:44:04;2.37;;;2.20;;
25667;SDS011;18003;-33.830;151.202;2023-09-08T11:46:32;2.60;;;2.40;;
25667;SDS011;18003;-33.830;151.202;2023-09-08T11:49:03;3.00;;;2.80;;
25667;SDS011;18003;-33.830;151.202;2023-09-08T11:51:34;3.00;;;2.70;;
25667;SDS011;18003;-33.830;151.202;2023-09-08T11:54:04;3.83;;;2.77;;
25667;SDS011;18003;-33.830;151.202;2023-09-08T11:56:41;2.92;;;2.72;;
25667;SDS011;18003;-33.830;151.202;2023-09-08T11:59:12;3.22;;;2.80;;
25667;SDS011;18003;-33.830;151.202;2023-09-08T12:01:42;2.80;;;2.60;;
25667;SDS011;18003;-33.830;151.202;2023-09-08T12:04:18;2.65;;;2.45;;
25667;SDS011;18003;-33.830;151.202;2023-09-08T12:06:48;3.30;;;2.75;;
25667;SDS011;18003;-33.830;151.202;2023-09-08T12:09:20;2.60;;;2.40;;
25667;SDS011;18003;-33.830;151.202;2023-09-08T12:11:50;3.02;;;2.72;;
25667;SDS011;18003;-33.830;151.202;2023-09-08T12:14:21;2.90;;;2.70;;
25667;SDS011;18003;-33.830;151.202;2023-09-08T12:16:54;4.08;;;2.90;;
25667;SDS011;18003;-33.830;151.202;2023-09-08T12:19:30;3.17;;;2.98;;
25667;SDS011;18003;-33.830;151.202;2023-09-08T12:22:00;2.67;;;2.42;;
25667;SDS011;18003;-33.830;151.202;2023-09-08T12:27:25;2.90;;;2.70;;
25667;SDS011;18003;-33.830;151.202;2023-09-08T12:29:59;3.30;;;3.00;;
25667;SDS011;18003;-33.830;151.202;2023-09-08T12:32:30;3.22;;;2.92;;
25667;SDS011;18003;-33.830;151.202;2023-09-08T12:35:05;3.83;;;2.95;;
25667;SDS011;18003;-33.830;151.202;2023-09-08T12:37:38;3.60;;;3.33;;
25667;SDS011;18003;-33.830;151.202;2023-09-08T12:40:08;3.52;;;2.85;;
25667;SDS011;18003;-33.830;151.202;2023-09-08T12:42:38;4.30;;;3.00;;
25667;SDS011;18003;-33.830;151.202;2023-09-08T12:45:08;2.70;;;2.50;;
25667;SDS011;18003;-33.830;151.202;2023-09-08T12:47:38;3.98;;;2.90;;
25667;SDS011;18003;-33.830;151.202;2023-09-08T12:50:08;3.08;;;2.75;;
25667;SDS011;18003;-33.830;151.202;2023-09-08T12:52:39;2.70;;;2.50;;
25667;SDS011;18003;-33.830;151.202;2023-09-08T12:55:09;4.20;;;2.80;;
25667;SDS011;18003;-33.830;151.202;2023-09-08T12:57:40;3.20;;;2.90;;
25667;SDS011;18003;-33.830;151.202;2023-09-08T13:00:11;6.65;;;3.02;;
25667;SDS011;18003;-33.830;151.202;2023-09-08T13:02:41;3.67;;;3.30;;
25667;SDS011;18003;-33.830;151.202;2023-09-08T13:05:12;3.25;;;2.90;;
25667;SDS011;18003;-33.830;151.202;2023-09-08T13:07:42;3.58;;;3.10;;
25667;SDS011;18003;-33.830;151.202;2023-09-08T13:10:12;2.70;;;2.47;;
25667;SDS011;18003;-33.830;151.202;2023-09-08T13:12:42;2.98;;;2.67;;
25667;SDS011;18003;-33.830;151.202;2023-09-08T13:15:13;2.98;;;2.67;;
25667;SDS011;18003;-33.830;151.202;2023-09-08T13:17:43;3.17;;;2.83;;
25667;SDS011;18003;-33.830;151.202;2023-09-08T13:20:14;3.37;;;2.77;;
25667;SDS011;18003;-33.830;151.202;2023-09-08T13:22:44;3.12;;;2.80;;
25667;SDS011;18003;-33.830;151.202;2023-09-08T13:25:14;3.37;;;3.05;;
25667;SDS011;18003;-33.830;151.202;2023-09-08T13:27:44;3.30;;;3.00;;
25667;SDS011;18003;-33.830;151.202;2023-09-08T13:30:14;3.30;;;3.00;;
25667;SDS011;18003;-33.830;151.202;2023-09-08T13:32:45;3.17;;;2.80;;
25667;SDS011;18003;-33.830;151.202;2023-09-08T13:35:15;3.55;;;3.00;;
25667;SDS011;18003;-33.830;151.202;2023-09-08T13:37:45;3.42;;;3.10;;
25667;SDS011;18003;-33.830;151.202;2023-09-08T13:40:15;5.37;;;3.55;;
25667;SDS011;18003;-33.830;151.202;2023-09-08T13:42:46;3.80;;;3.12;;
25667;SDS011;18003;-33.830;151.202;2023-09-08T13:45:15;5.20;;;3.00;;
25667;SDS011;18003;-33.830;151.202;2023-09-08T13:47:46;3.40;;;3.00;;
25667;SDS011;18003;-33.830;151.202;2023-09-08T13:50:16;3.65;;;3.17;;
25667;SDS011;18003;-33.830;151.202;2023-09-08T13:52:46;4.17;;;3.20;;
25667;SDS011;18003;-33.830;151.202;2023-09-08T13:55:16;3.25;;;2.95;;
25667;SDS011;18003;-33.830;151.202;2023-09-08T13:57:47;3.08;;;2.80;;
25667;SDS011;18003;-33.830;151.202;2023-09-08T14:00:17;3.80;;;3.00;;
25667;SDS011;18003;-33.830;151.202;2023-09-08T14:02:48;3.77;;;3.00;;
25667;SDS011;18003;-33.830;151.202;2023-09-08T14:05:18;3.30;;;3.00;;
25667;SDS011;18003;-33.830;151.202;2023-09-08T14:07:48;3.95;;;3.52;;
25667;SDS011;18003;-33.830;151.202;2023-09-08T14:10:18;4.05;;;3.60;;
25667;SDS011;18003;-33.830;151.202;2023-09-08T14:12:48;3.60;;;3.30;;
25667;SDS011;18003;-33.830;151.202;2023-09-08T14:15:18;4.10;;;3.20;;
25667;SDS011;18003;-33.830;151.202;2023-09-08T14:17:48;3.55;;;3.10;;
25667;SDS011;18003;-33.830;151.202;2023-09-08T14:20:19;3.00;;;2.50;;
25667;SDS011;18003;-33.830;151.202;2023-09-08T14:22:49;3.40;;;3.10;;
25667;SDS011;18003;-33.830;151.202;2023-09-08T14:25:19;3.52;;;3.15;;
25667;SDS011;18003;-33.830;151.202;2023-09-08T14:27:49;4.20;;;3.20;;
25667;SDS011;18003;-33.830;151.202;2023-09-08T14:30:19;3.37;;;3.08;;
25667;SDS011;18003;-33.830;151.202;2023-09-08T14:32:49;4.33;;;3.60;;
25667;SDS011;18003;-33.830;151.202;2023-09-08T14:35:19;4.05;;;3.52;;
25667;SDS011;18003;-33.830;151.202;2023-09-08T14:37:49;3.80;;;3.50;;
25667;SDS011;18003;-33.830;151.202;2023-09-08T14:40:19;3.60;;;3.30;;
25667;SDS011;18003;-33.830;151.202;2023-09-08T14:42:51;3.50;;;3.20;;
25667;SDS011;18003;-33.830;151.202;2023-09-08T14:45:21;3.70;;;3.40;;
25667;SDS011;18003;-33.830;151.202;2023-09-08T14:47:51;3.50;;;3.20;;
25667;SDS011;18003;-33.830;151.202;2023-09-08T14:50:21;4.78;;;3.45;;